Etusivu
METAR-TAF:

METAR-TAF

Lentoasemat :

Banská Bystrica, Slovakia

Leveyspiiri: 48-38-17N, Pituuspiiri: 019-08-03E, korkeus merenpinnasta: 318 m

METAR: puuttuu

Aika: 15:07 (13:07 UTC)

Sääennuste

Tämä raportti tehtiin 8 tuntia ja 37 minuuttia sitten, kello 04.30 UTC
Ennuste voimassa 18. päivästä klo 06 UTC - 18. päivään klo 18 UTC
Tuuli 2 kn eri suunnista
Näkyvyys 10 km tai enemmän
ei pilviä alle 1500 m:ssä eikä cumulonimbus-pilviä
Tulossa
18. päivästä klo 08 UTC - 18. päivään klo 10 UTC
Tuuli 10 kn etelästä
Näkyvyys 10 km tai enemmän
Muutamia pilviä 4500 ft:n korkeudessa

TAF: LZSL 180430Z 1806/1818 VRB02KT CAVOK BECMG 1808/1810 19010KT 9999 FEW045

Säähavainnot ja -ennusteet yli 4000 lentoasemalta (METAR- ja TAF-raportit).

Käytössä olevat sääasemat on merkitty karttaan keltaisilla ja punaisilla pisteillä.

Aseta hiiri pisteen päälle nähdäksesi sääaseman nimen.

Klikkaa sitten nähdäksesi säähavainnot ja -ennusteet.

Kartan vaihtaminen: klikkaa mustalla rastilla varustettuja vihreitä pisteitä, niin voit zoomata sisään; viivalla varustettua vihreää pistettä, niin voit zoomata ulos tai vihreitä nuolia, niin pääset viereisille kartoille.


METAR-TAF: